createdAt,value
2022-09-01T00:02:00.728Z,63.04
2022-09-01T00:07:24.593Z,62.87
2022-09-01T00:12:17.025Z,62.97
2022-09-01T00:17:16.938Z,63.07
2022-09-01T00:22:16.889Z,63.07
2022-09-01T00:27:16.860Z,63.27
2022-09-01T00:32:16.742Z,65.39
2022-09-01T00:37:16.694Z,65.42
2022-09-01T00:42:16.625Z,66.76
2022-09-01T00:47:16.581Z,66.76
2022-09-01T00:52:16.639Z,67.40
2022-09-01T00:57:16.418Z,68.54
2022-09-01T01:02:16.419Z,69.24
2022-09-01T01:07:16.355Z,70.09
2022-09-01T01:12:16.217Z,69.08
2022-09-01T01:17:16.172Z,68.47
2022-09-01T01:22:16.143Z,67.53
2022-09-01T01:27:16.016Z,67.13
2022-09-01T01:32:15.948Z,67.13
2022-09-01T01:37:15.865Z,68.64
2022-09-01T01:42:15.824Z,67.93
2022-09-01T01:47:15.779Z,67.86
2022-09-01T01:52:15.692Z,68.67
2022-09-01T01:57:15.645Z,69.28
2022-09-01T02:02:15.707Z,71.33
2022-09-01T02:07:15.491Z,71.77
2022-09-01T02:12:15.992Z,72.51
2022-09-01T02:17:15.686Z,72.61
2022-09-01T02:22:15.325Z,73.15
2022-09-01T02:27:15.240Z,73.76
2022-09-01T02:32:15.208Z,73.59
2022-09-01T02:37:15.168Z,73.59
2022-09-01T02:42:15.008Z,74.30
2022-09-01T02:47:15.004Z,73.59
2022-09-01T02:52:14.972Z,74.81
2022-09-01T02:57:14.808Z,74.95
2022-09-01T03:02:14.743Z,74.44
2022-09-01T03:07:14.863Z,74.24
2022-09-01T03:12:14.656Z,75.45
2022-09-01T03:17:14.596Z,74.84
2022-09-01T03:22:14.512Z,74.64
2022-09-01T03:27:14.431Z,74.57
2022-09-01T03:32:14.449Z,75.18
2022-09-01T03:37:14.302Z,75.79
2022-09-01T03:42:14.648Z,75.49
2022-09-01T03:47:14.185Z,76.40
2022-09-01T03:52:14.157Z,76.43
2022-09-01T03:57:14.425Z,76.84
2022-09-01T04:02:14.046Z,77.38
2022-09-01T04:07:19.018Z,77.79
2022-09-01T04:12:14.844Z,78.19
2022-09-01T04:17:28.615Z,78.13
2022-09-01T04:22:18.096Z,79.35
2022-09-01T04:27:17.025Z,79.25
2022-09-01T04:32:16.993Z,79.69
2022-09-01T04:37:16.910Z,80.40
2022-09-01T04:42:17.552Z,80.60
2022-09-01T04:47:16.948Z,80.64
2022-09-01T04:52:16.761Z,81.45
2022-09-01T04:57:16.653Z,81.66
2022-09-01T05:02:16.682Z,81.05
2022-09-01T05:07:16.540Z,81.76
2022-09-01T05:12:16.558Z,81.15
2022-09-01T05:17:16.363Z,81.01
2022-09-01T05:22:16.286Z,81.72
2022-09-01T05:27:16.228Z,81.62
2022-09-01T05:32:16.187Z,81.72
2022-09-01T05:37:16.109Z,82.43
2022-09-01T05:42:16.034Z,81.88
2022-09-01T05:47:20.814Z,81.68
2022-09-01T05:52:16.912Z,81.78
2022-09-01T05:57:33.292Z,81.24
2022-09-01T06:02:16.976Z,81.34
2022-09-01T06:07:16.378Z,81.34
2022-09-01T06:12:15.619Z,81.40
2022-09-01T06:17:15.585Z,79.85
2022-09-01T06:22:15.467Z,80.35
2022-09-01T06:27:15.438Z,79.30
2022-09-01T06:32:15.360Z,79.71
2022-09-01T06:37:15.275Z,77.81
2022-09-01T06:42:15.238Z,76.66
2022-09-01T06:47:15.226Z,74.36
2022-09-01T06:52:15.079Z,70.09
2022-09-01T07:02:17.735Z,61.88
2022-09-01T07:12:31.438Z,52.51
2022-09-01T07:17:23.025Z,52.44
2022-09-01T07:27:15.665Z,49.26
2022-09-01T07:38:03.689Z,45.06
2022-09-01T07:47:52.354Z,47.60
2022-09-01T07:52:15.324Z,48.99
2022-09-01T07:57:15.205Z,46.31
2022-09-01T08:02:14.298Z,43.07
2022-09-01T08:07:17.078Z,40.35
2022-09-01T08:12:14.050Z,39.70
2022-09-01T08:17:18.232Z,39.73
2022-09-01T08:22:14.987Z,42.40
2022-09-01T08:27:13.849Z,39.17
2022-09-01T08:32:13.781Z,39.73
2022-09-01T08:37:13.723Z,38.24
2022-09-01T08:42:13.673Z,35.49
2022-09-01T08:47:17.231Z,35.02
2022-09-01T08:52:13.531Z,36.88
2022-09-01T08:57:13.462Z,35.86
2022-09-01T09:02:13.521Z,34.03
2022-09-01T09:07:13.678Z,33.70
2022-09-01T09:12:13.280Z,32.40
2022-09-01T09:17:13.211Z,32.99
2022-09-01T09:22:13.136Z,33.15
2022-09-01T09:27:13.104Z,33.15
2022-09-01T09:37:13.953Z,31.95
2022-09-01T09:42:13.229Z,34.64
2022-09-01T09:47:33.394Z,34.48
2022-09-01T09:52:16.411Z,34.72
2022-09-01T09:57:12.706Z,37.99
2022-09-01T10:02:12.654Z,39.37
2022-09-01T10:07:12.591Z,41.63
2022-09-01T10:12:12.511Z,44.98
2022-09-01T10:17:12.581Z,47.13
2022-09-01T10:22:12.573Z,41.96
2022-09-01T10:27:14.783Z,35.25
2022-09-01T10:32:31.482Z,34.80
2022-09-01T10:37:15.995Z,34.01
2022-09-01T10:42:13.128Z,36.21
2022-09-01T10:47:16.433Z,36.04
2022-09-01T10:52:14.110Z,35.85
2022-09-01T10:57:12.237Z,34.78
2022-09-01T11:02:28.731Z,34.13
2022-09-01T11:07:12.874Z,33.11
2022-09-01T11:12:11.750Z,37.59
2022-09-01T11:17:11.695Z,41.08
2022-09-01T11:22:13.111Z,39.50
2022-09-01T11:27:11.558Z,36.47
2022-09-01T11:32:11.541Z,40.70
2022-09-01T11:37:11.452Z,41.52
2022-09-01T11:42:11.352Z,42.66
2022-09-01T11:47:14.346Z,44.31
2022-09-01T11:52:11.226Z,43.65
2022-09-01T11:57:11.158Z,43.38
2022-09-01T12:02:11.624Z,42.62
2022-09-01T12:07:11.519Z,40.09
2022-09-01T12:12:11.864Z,40.64
2022-09-01T12:17:10.976Z,42.29
2022-09-01T12:22:10.849Z,38.77
2022-09-01T12:27:10.893Z,36.85
2022-09-01T12:32:10.815Z,35.18
2022-09-01T12:37:10.654Z,38.57
2022-09-01T12:42:10.601Z,41.77
2022-09-01T12:47:10.540Z,38.24
2022-09-01T12:52:10.449Z,40.03
2022-09-01T12:57:10.741Z,41.44
2022-09-01T13:02:10.774Z,39.75
2022-09-01T13:07:10.892Z,41.69
2022-09-01T13:12:10.209Z,42.03
2022-09-01T13:17:14.251Z,41.52
2022-09-01T13:22:10.192Z,39.62
2022-09-01T13:27:25.390Z,37.41
2022-09-01T13:32:20.896Z,38.07
2022-09-01T13:37:12.384Z,37.89
2022-09-01T13:42:10.749Z,37.38
2022-09-01T13:52:11.808Z,36.67
2022-09-01T13:57:09.578Z,35.57
2022-09-01T14:02:09.540Z,35.83
2022-09-01T14:07:09.491Z,35.00
2022-09-01T14:12:09.396Z,36.16
2022-09-01T14:17:09.368Z,35.96
2022-09-01T14:22:09.280Z,36.18
2022-09-01T14:27:09.211Z,35.07
2022-09-01T14:32:09.133Z,35.53
2022-09-01T14:37:09.145Z,35.52
2022-09-01T14:42:09.026Z,36.76
2022-09-01T14:47:11.675Z,36.77
2022-09-01T14:52:10.733Z,37.30
2022-09-01T15:02:09.785Z,38.12
2022-09-01T15:07:08.727Z,38.48
2022-09-01T15:12:08.610Z,37.24
2022-09-01T15:17:08.557Z,35.52
2022-09-01T15:22:08.547Z,34.41
2022-09-01T15:27:08.445Z,35.00
2022-09-01T15:32:08.356Z,35.00
2022-09-01T15:37:09.324Z,35.22
2022-09-01T15:42:08.298Z,36.41
2022-09-01T15:47:08.151Z,35.89
2022-09-01T15:52:08.101Z,36.23
2022-09-01T15:57:09.120Z,36.31
2022-09-01T16:02:08.074Z,37.65
2022-09-01T16:07:07.923Z,37.75
2022-09-01T16:12:07.848Z,37.79
2022-09-01T16:17:07.810Z,38.81
2022-09-01T16:22:08.704Z,39.61
2022-09-01T16:27:07.668Z,38.92
2022-09-01T16:32:07.572Z,39.51
2022-09-01T16:37:07.501Z,39.01
2022-09-01T16:42:07.817Z,39.73
2022-09-01T16:47:07.414Z,39.83
2022-09-01T16:52:07.339Z,40.42
2022-09-01T16:57:07.257Z,39.75
2022-09-01T17:02:07.504Z,41.55
2022-09-01T17:07:07.194Z,40.88
2022-09-01T17:12:07.072Z,41.39
2022-09-01T17:17:07.008Z,41.89
2022-09-01T17:22:06.981Z,42.11
2022-09-01T17:27:06.904Z,42.31
2022-09-01T17:32:06.798Z,44.12
2022-09-01T17:37:06.781Z,47.53
2022-09-01T17:42:06.650Z,49.85
2022-09-01T17:47:10.078Z,52.09
2022-09-01T17:52:06.607Z,52.32
2022-09-01T17:57:09.145Z,53.37
2022-09-01T18:02:06.528Z,53.09
2022-09-01T18:07:06.352Z,53.74
2022-09-01T18:12:06.359Z,53.34
2022-09-01T18:17:06.206Z,53.07
2022-09-01T18:22:06.171Z,53.17
2022-09-01T18:27:06.066Z,50.46
2022-09-01T18:32:06.018Z,53.07
2022-09-01T18:37:05.966Z,52.37
2022-09-01T18:42:05.964Z,51.99
2022-09-01T18:47:05.811Z,50.79
2022-09-01T18:52:05.710Z,49.99
2022-09-01T18:57:05.727Z,49.29
2022-09-01T19:02:05.727Z,48.96
2022-09-01T19:07:05.543Z,49.76
2022-09-01T19:12:05.467Z,49.26
2022-09-01T19:17:05.384Z,48.57
2022-09-01T19:22:05.364Z,48.57
2022-09-01T19:27:05.307Z,48.19
2022-09-01T19:32:05.202Z,47.56
2022-09-01T19:37:05.163Z,47.56
2022-09-01T19:42:05.081Z,47.49
2022-09-01T19:47:04.981Z,47.69
2022-09-01T19:52:05.000Z,47.58
2022-09-01T19:57:04.887Z,47.69
2022-09-01T20:02:04.875Z,47.49
2022-09-01T20:07:04.748Z,47.61
2022-09-01T20:12:04.685Z,47.81
2022-09-01T20:17:08.408Z,47.81
2022-09-01T20:22:13.111Z,47.91
2022-09-01T20:27:31.365Z,48.03
2022-09-01T20:32:34.714Z,48.33
2022-09-01T20:43:34.623Z,48.46
2022-09-01T20:48:40.377Z,48.66
2022-09-01T20:53:33.980Z,48.75
2022-09-01T20:58:35.651Z,48.75
2022-09-01T21:03:33.671Z,48.96
2022-09-01T21:08:32.822Z,48.66
2022-09-01T21:13:54.566Z,48.75
2022-09-01T21:18:41.299Z,48.96
2022-09-01T21:23:53.611Z,49.36
2022-09-01T21:28:31.455Z,49.16
2022-09-01T21:33:38.286Z,48.96
2022-09-01T21:38:31.405Z,48.96
2022-09-01T21:43:31.665Z,48.86
2022-09-01T21:48:42.371Z,49.26
2022-09-01T21:54:00.131Z,48.96
2022-09-01T21:59:03.857Z,49.05
2022-09-01T22:04:01.629Z,49.36
2022-09-01T22:09:34.350Z,49.68
2022-09-01T22:13:57.228Z,49.48
2022-09-01T22:19:09.459Z,49.88
2022-09-01T22:30:01.606Z,50.38
2022-09-01T22:35:03.884Z,50.11
2022-09-01T22:39:54.233Z,50.21
2022-09-01T22:45:32.153Z,50.31
2022-09-01T22:49:57.216Z,50.51
2022-09-01T22:55:30.681Z,50.73
2022-09-01T23:00:00.992Z,50.63
2022-09-01T23:10:44.652Z,51.34
2022-09-01T23:15:47.915Z,51.14
2022-09-01T23:20:54.287Z,51.56
2022-09-01T23:25:53.641Z,51.76
2022-09-01T23:30:48.708Z,52.06
2022-09-01T23:35:51.019Z,51.86
2022-09-01T23:40:49.322Z,52.17
2022-09-01T23:45:51.067Z,52.49
2022-09-01T23:50:49.568Z,52.26
2022-09-01T23:55:50.482Z,52.47
